sensor_id;sensor_type;location;lat;lon;timestamp;P1;durP1;ratioP1;P2;durP2;ratioP2
16612;SDS011;8419;52.358;9.752;2024-01-15T00:00:08;3.73;;;2.27;;
16612;SDS011;8419;52.358;9.752;2024-01-15T00:02:55;8.47;;;3.97;;
16612;SDS011;8419;52.358;9.752;2024-01-15T00:05:41;4.37;;;3.27;;
16612;SDS011;8419;52.358;9.752;2024-01-15T00:08:27;6.10;;;3.10;;
16612;SDS011;8419;52.358;9.752;2024-01-15T00:11:12;7.97;;;4.83;;
16612;SDS011;8419;52.358;9.752;2024-01-15T00:13:57;6.63;;;3.83;;
16612;SDS011;8419;52.358;9.752;2024-01-15T00:16:43;4.43;;;3.37;;
16612;SDS011;8419;52.358;9.752;2024-01-15T00:19:28;3.40;;;2.53;;
16612;SDS011;8419;52.358;9.752;2024-01-15T00:22:16;7.10;;;2.53;;
16612;SDS011;8419;52.358;9.752;2024-01-15T00:25:02;4.77;;;2.80;;
16612;SDS011;8419;52.358;9.752;2024-01-15T00:27:48;7.30;;;3.00;;
16612;SDS011;8419;52.358;9.752;2024-01-15T00:30:33;5.47;;;3.33;;
16612;SDS011;8419;52.358;9.752;2024-01-15T00:33:19;7.50;;;3.27;;
16612;SDS011;8419;52.358;9.752;2024-01-15T00:36:05;3.60;;;2.27;;
16612;SDS011;8419;52.358;9.752;2024-01-15T00:38:51;6.87;;;3.10;;
16612;SDS011;8419;52.358;9.752;2024-01-15T00:41:37;7.03;;;2.63;;
16612;SDS011;8419;52.358;9.752;2024-01-15T00:44:22;4.33;;;3.23;;
16612;SDS011;8419;52.358;9.752;2024-01-15T00:47:07;2.93;;;2.20;;
16612;SDS011;8419;52.358;9.752;2024-01-15T00:49:52;5.60;;;4.00;;
16612;SDS011;8419;52.358;9.752;2024-01-15T00:52:38;4.70;;;2.90;;
16612;SDS011;8419;52.358;9.752;2024-01-15T00:55:23;4.13;;;2.30;;
16612;SDS011;8419;52.358;9.752;2024-01-15T00:58:09;6.77;;;3.13;;
16612;SDS011;8419;52.358;9.752;2024-01-15T01:00:54;7.03;;;4.23;;
16612;SDS011;8419;52.358;9.752;2024-01-15T01:03:40;3.80;;;2.40;;
16612;SDS011;8419;52.358;9.752;2024-01-15T01:06:25;3.03;;;2.20;;
16612;SDS011;8419;52.358;9.752;2024-01-15T01:09:10;4.30;;;2.40;;
16612;SDS011;8419;52.358;9.752;2024-01-15T01:11:56;3.53;;;2.73;;
16612;SDS011;8419;52.358;9.752;2024-01-15T01:14:41;4.00;;;2.63;;
16612;SDS011;8419;52.358;9.752;2024-01-15T01:17:27;6.93;;;3.10;;
16612;SDS011;8419;52.358;9.752;2024-01-15T01:20:15;4.93;;;2.40;;
16612;SDS011;8419;52.358;9.752;2024-01-15T01:23:00;3.03;;;1.80;;
16612;SDS011;8419;52.358;9.752;2024-01-15T01:25:46;2.73;;;1.33;;
16612;SDS011;8419;52.358;9.752;2024-01-15T01:28:31;7.77;;;3.87;;
16612;SDS011;8419;52.358;9.752;2024-01-15T01:31:16;4.80;;;2.67;;
16612;SDS011;8419;52.358;9.752;2024-01-15T01:34:02;2.83;;;2.30;;
16612;SDS011;8419;52.358;9.752;2024-01-15T01:36:47;5.07;;;1.90;;
16612;SDS011;8419;52.358;9.752;2024-01-15T01:39:32;3.50;;;2.30;;
16612;SDS011;8419;52.358;9.752;2024-01-15T01:42:18;4.00;;;2.30;;
16612;SDS011;8419;52.358;9.752;2024-01-15T01:45:04;7.27;;;1.37;;
16612;SDS011;8419;52.358;9.752;2024-01-15T01:47:51;3.30;;;1.23;;
16612;SDS011;8419;52.358;9.752;2024-01-15T01:50:36;3.37;;;1.13;;
16612;SDS011;8419;52.358;9.752;2024-01-15T01:53:22;1.63;;;1.20;;
16612;SDS011;8419;52.358;9.752;2024-01-15T01:56:10;2.20;;;1.23;;
16612;SDS011;8419;52.358;9.752;2024-01-15T01:58:56;4.90;;;1.33;;
16612;SDS011;8419;52.358;9.752;2024-01-15T02:01:43;2.67;;;1.07;;
16612;SDS011;8419;52.358;9.752;2024-01-15T02:04:29;2.93;;;1.00;;
16612;SDS011;8419;52.358;9.752;2024-01-15T02:07:16;9.73;;;2.30;;
16612;SDS011;8419;52.358;9.752;2024-01-15T02:10:02;3.87;;;1.77;;
16612;SDS011;8419;52.358;9.752;2024-01-15T02:12:48;7.27;;;2.50;;
16612;SDS011;8419;52.358;9.752;2024-01-15T02:15:34;2.60;;;1.10;;
16612;SDS011;8419;52.358;9.752;2024-01-15T02:18:19;5.10;;;1.13;;
16612;SDS011;8419;52.358;9.752;2024-01-15T02:21:05;2.70;;;1.00;;
16612;SDS011;8419;52.358;9.752;2024-01-15T02:23:51;3.33;;;1.33;;
16612;SDS011;8419;52.358;9.752;2024-01-15T02:26:37;4.83;;;1.43;;
16612;SDS011;8419;52.358;9.752;2024-01-15T02:29:23;3.13;;;1.27;;
16612;SDS011;8419;52.358;9.752;2024-01-15T02:32:09;0.70;;;0.67;;
16612;SDS011;8419;52.358;9.752;2024-01-15T02:34:54;6.57;;;0.87;;
16612;SDS011;8419;52.358;9.752;2024-01-15T02:37:40;5.03;;;0.90;;
16612;SDS011;8419;52.358;9.752;2024-01-15T02:40:26;1.47;;;0.97;;
16612;SDS011;8419;52.358;9.752;2024-01-15T02:43:11;2.30;;;1.10;;
16612;SDS011;8419;52.358;9.752;2024-01-15T02:45:57;2.37;;;1.00;;
16612;SDS011;8419;52.358;9.752;2024-01-15T02:48:43;2.90;;;1.17;;
16612;SDS011;8419;52.358;9.752;2024-01-15T02:51:29;2.60;;;1.03;;
16612;SDS011;8419;52.358;9.752;2024-01-15T02:54:14;3.10;;;1.53;;
16612;SDS011;8419;52.358;9.752;2024-01-15T02:57:00;1.13;;;0.60;;
16612;SDS011;8419;52.358;9.752;2024-01-15T02:59:45;1.97;;;1.03;;
16612;SDS011;8419;52.358;9.752;2024-01-15T03:02:31;4.20;;;1.00;;
16612;SDS011;8419;52.358;9.752;2024-01-15T03:05:16;13.80;;;1.27;;
16612;SDS011;8419;52.358;9.752;2024-01-15T03:08:02;11.73;;;1.33;;
16612;SDS011;8419;52.358;9.752;2024-01-15T03:10:48;4.97;;;1.00;;
16612;SDS011;8419;52.358;9.752;2024-01-15T03:13:35;2.72;;;0.70;;
16612;SDS011;8419;52.358;9.752;2024-01-15T03:16:21;2.17;;;1.10;;
16612;SDS011;8419;52.358;9.752;2024-01-15T03:19:07;3.23;;;1.47;;
16612;SDS011;8419;52.358;9.752;2024-01-15T03:21:52;3.90;;;1.10;;
16612;SDS011;8419;52.358;9.752;2024-01-15T03:24:37;2.37;;;1.00;;
16612;SDS011;8419;52.358;9.752;2024-01-15T03:27:22;2.70;;;1.10;;
16612;SDS011;8419;52.358;9.752;2024-01-15T03:30:09;2.13;;;0.60;;
16612;SDS011;8419;52.358;9.752;2024-01-15T03:32:55;2.57;;;0.87;;
16612;SDS011;8419;52.358;9.752;2024-01-15T03:35:41;0.50;;;0.30;;
16612;SDS011;8419;52.358;9.752;2024-01-15T03:38:28;2.63;;;0.77;;
16612;SDS011;8419;52.358;9.752;2024-01-15T03:41:13;5.03;;;1.53;;
16612;SDS011;8419;52.358;9.752;2024-01-15T03:43:58;3.93;;;1.20;;
16612;SDS011;8419;52.358;9.752;2024-01-15T03:46:43;1.63;;;0.70;;
16612;SDS011;8419;52.358;9.752;2024-01-15T03:49:29;2.60;;;1.10;;
16612;SDS011;8419;52.358;9.752;2024-01-15T03:52:14;6.13;;;0.87;;
16612;SDS011;8419;52.358;9.752;2024-01-15T03:55:00;1.70;;;0.73;;
16612;SDS011;8419;52.358;9.752;2024-01-15T03:57:45;2.20;;;0.60;;
16612;SDS011;8419;52.358;9.752;2024-01-15T04:00:30;5.13;;;1.10;;
16612;SDS011;8419;52.358;9.752;2024-01-15T04:03:16;5.07;;;1.00;;
16612;SDS011;8419;52.358;9.752;2024-01-15T04:06:01;1.50;;;0.83;;
16612;SDS011;8419;52.358;9.752;2024-01-15T04:08:47;1.87;;;0.50;;
16612;SDS011;8419;52.358;9.752;2024-01-15T04:11:33;2.07;;;0.90;;
16612;SDS011;8419;52.358;9.752;2024-01-15T04:14:18;1.00;;;0.80;;
16612;SDS011;8419;52.358;9.752;2024-01-15T04:17:04;0.83;;;0.53;;
16612;SDS011;8419;52.358;9.752;2024-01-15T04:19:49;2.60;;;0.73;;
16612;SDS011;8419;52.358;9.752;2024-01-15T04:22:35;3.50;;;0.77;;
16612;SDS011;8419;52.358;9.752;2024-01-15T04:25:21;3.90;;;1.10;;
16612;SDS011;8419;52.358;9.752;2024-01-15T04:28:06;3.33;;;1.13;;
16612;SDS011;8419;52.358;9.752;2024-01-15T04:30:52;1.10;;;0.53;;
16612;SDS011;8419;52.358;9.752;2024-01-15T04:33:37;4.33;;;0.57;;
16612;SDS011;8419;52.358;9.752;2024-01-15T04:36:22;4.77;;;0.73;;
16612;SDS011;8419;52.358;9.752;2024-01-15T04:39:08;3.70;;;0.97;;
16612;SDS011;8419;52.358;9.752;2024-01-15T04:41:56;1.70;;;1.00;;
16612;SDS011;8419;52.358;9.752;2024-01-15T04:44:41;3.87;;;1.02;;
16612;SDS011;8419;52.358;9.752;2024-01-15T04:47:26;2.00;;;0.80;;
16612;SDS011;8419;52.358;9.752;2024-01-15T04:50:12;2.73;;;1.03;;
16612;SDS011;8419;52.358;9.752;2024-01-15T04:52:58;2.53;;;0.63;;
16612;SDS011;8419;52.358;9.752;2024-01-15T04:55:43;2.77;;;0.97;;
16612;SDS011;8419;52.358;9.752;2024-01-15T04:58:29;3.67;;;0.60;;
16612;SDS011;8419;52.358;9.752;2024-01-15T05:01:16;3.10;;;1.00;;
16612;SDS011;8419;52.358;9.752;2024-01-15T05:04:02;2.37;;;0.77;;
16612;SDS011;8419;52.358;9.752;2024-01-15T05:06:47;1.80;;;0.80;;
16612;SDS011;8419;52.358;9.752;2024-01-15T05:09:33;3.53;;;1.43;;
16612;SDS011;8419;52.358;9.752;2024-01-15T05:12:19;3.37;;;0.90;;
16612;SDS011;8419;52.358;9.752;2024-01-15T05:15:05;1.20;;;0.60;;
16612;SDS011;8419;52.358;9.752;2024-01-15T05:17:50;4.03;;;1.77;;
16612;SDS011;8419;52.358;9.752;2024-01-15T05:20:36;3.60;;;0.93;;
16612;SDS011;8419;52.358;9.752;2024-01-15T05:23:21;2.00;;;1.20;;
16612;SDS011;8419;52.358;9.752;2024-01-15T05:26:07;2.87;;;0.73;;
16612;SDS011;8419;52.358;9.752;2024-01-15T05:28:53;6.33;;;1.17;;
16612;SDS011;8419;52.358;9.752;2024-01-15T05:31:38;0.73;;;0.50;;
16612;SDS011;8419;52.358;9.752;2024-01-15T05:34:23;5.20;;;1.10;;
16612;SDS011;8419;52.358;9.752;2024-01-15T05:37:09;0.97;;;0.77;;
16612;SDS011;8419;52.358;9.752;2024-01-15T05:39:55;3.97;;;0.93;;
16612;SDS011;8419;52.358;9.752;2024-01-15T05:42:41;1.33;;;0.50;;
16612;SDS011;8419;52.358;9.752;2024-01-15T05:45:27;0.40;;;0.40;;
16612;SDS011;8419;52.358;9.752;2024-01-15T05:48:12;4.23;;;1.40;;
16612;SDS011;8419;52.358;9.752;2024-01-15T05:50:57;1.00;;;0.33;;
16612;SDS011;8419;52.358;9.752;2024-01-15T05:53:43;4.20;;;1.00;;
16612;SDS011;8419;52.358;9.752;2024-01-15T05:56:29;2.90;;;0.93;;
16612;SDS011;8419;52.358;9.752;2024-01-15T05:59:14;1.73;;;0.60;;
16612;SDS011;8419;52.358;9.752;2024-01-15T06:02:00;5.90;;;0.80;;
16612;SDS011;8419;52.358;9.752;2024-01-15T06:04:45;2.67;;;0.80;;
16612;SDS011;8419;52.358;9.752;2024-01-15T06:07:31;3.40;;;1.00;;
16612;SDS011;8419;52.358;9.752;2024-01-15T06:10:18;1.90;;;0.40;;
16612;SDS011;8419;52.358;9.752;2024-01-15T06:13:03;3.40;;;0.87;;
16612;SDS011;8419;52.358;9.752;2024-01-15T06:15:49;0.70;;;0.50;;
16612;SDS011;8419;52.358;9.752;2024-01-15T06:18:35;1.60;;;0.60;;
16612;SDS011;8419;52.358;9.752;2024-01-15T06:21:21;1.17;;;0.47;;
16612;SDS011;8419;52.358;9.752;2024-01-15T06:24:06;4.10;;;1.03;;
16612;SDS011;8419;52.358;9.752;2024-01-15T06:26:53;8.63;;;1.03;;
16612;SDS011;8419;52.358;9.752;2024-01-15T06:29:44;2.17;;;0.70;;
16612;SDS011;8419;52.358;9.752;2024-01-15T06:32:31;1.07;;;0.60;;
16612;SDS011;8419;52.358;9.752;2024-01-15T06:35:17;2.10;;;0.70;;
16612;SDS011;8419;52.358;9.752;2024-01-15T06:38:03;4.00;;;0.97;;
16612;SDS011;8419;52.358;9.752;2024-01-15T06:40:49;3.80;;;0.83;;
16612;SDS011;8419;52.358;9.752;2024-01-15T06:43:36;4.27;;;0.70;;
16612;SDS011;8419;52.358;9.752;2024-01-15T06:46:21;5.43;;;1.13;;
16612;SDS011;8419;52.358;9.752;2024-01-15T06:49:07;1.10;;;0.80;;
16612;SDS011;8419;52.358;9.752;2024-01-15T06:51:52;10.13;;;1.80;;
16612;SDS011;8419;52.358;9.752;2024-01-15T06:54:38;1.87;;;0.73;;
16612;SDS011;8419;52.358;9.752;2024-01-15T06:57:23;2.67;;;0.90;;
16612;SDS011;8419;52.358;9.752;2024-01-15T07:00:10;1.40;;;0.63;;
16612;SDS011;8419;52.358;9.752;2024-01-15T07:02:56;2.53;;;0.60;;
16612;SDS011;8419;52.358;9.752;2024-01-15T07:05:42;0.93;;;0.30;;
16612;SDS011;8419;52.358;9.752;2024-01-15T07:08:27;3.73;;;0.97;;
16612;SDS011;8419;52.358;9.752;2024-01-15T07:11:13;5.93;;;1.17;;
16612;SDS011;8419;52.358;9.752;2024-01-15T07:13:58;2.93;;;1.13;;
16612;SDS011;8419;52.358;9.752;2024-01-15T07:16:44;3.37;;;0.93;;
16612;SDS011;8419;52.358;9.752;2024-01-15T07:19:29;2.13;;;1.00;;
16612;SDS011;8419;52.358;9.752;2024-01-15T07:22:15;1.57;;;0.87;;
16612;SDS011;8419;52.358;9.752;2024-01-15T07:25:01;3.03;;;1.20;;
16612;SDS011;8419;52.358;9.752;2024-01-15T07:27:49;3.33;;;1.47;;
16612;SDS011;8419;52.358;9.752;2024-01-15T07:30:34;2.67;;;0.73;;
16612;SDS011;8419;52.358;9.752;2024-01-15T07:33:22;5.97;;;1.30;;
16612;SDS011;8419;52.358;9.752;2024-01-15T07:36:09;2.83;;;1.20;;
16612;SDS011;8419;52.358;9.752;2024-01-15T07:38:55;1.57;;;1.30;;
16612;SDS011;8419;52.358;9.752;2024-01-15T07:41:40;2.50;;;1.13;;
16612;SDS011;8419;52.358;9.752;2024-01-15T07:44:26;1.03;;;0.80;;
16612;SDS011;8419;52.358;9.752;2024-01-15T07:47:11;5.40;;;1.00;;
16612;SDS011;8419;52.358;9.752;2024-01-15T07:49:57;2.23;;;1.00;;
16612;SDS011;8419;52.358;9.752;2024-01-15T07:52:42;3.53;;;1.63;;
16612;SDS011;8419;52.358;9.752;2024-01-15T07:55:27;3.30;;;0.73;;
16612;SDS011;8419;52.358;9.752;2024-01-15T07:58:13;2.90;;;1.00;;
16612;SDS011;8419;52.358;9.752;2024-01-15T08:00:59;8.07;;;0.80;;
16612;SDS011;8419;52.358;9.752;2024-01-15T08:03:45;4.93;;;1.63;;
16612;SDS011;8419;52.358;9.752;2024-01-15T08:06:30;8.40;;;1.63;;
16612;SDS011;8419;52.358;9.752;2024-01-15T08:09:16;3.97;;;1.20;;
16612;SDS011;8419;52.358;9.752;2024-01-15T08:12:02;7.30;;;1.90;;
16612;SDS011;8419;52.358;9.752;2024-01-15T08:14:50;2.47;;;1.30;;
16612;SDS011;8419;52.358;9.752;2024-01-15T08:17:36;2.87;;;1.43;;
16612;SDS011;8419;52.358;9.752;2024-01-15T08:20:21;1.20;;;1.10;;
16612;SDS011;8419;52.358;9.752;2024-01-15T08:23:07;1.70;;;0.97;;
16612;SDS011;8419;52.358;9.752;2024-01-15T08:25:53;1.17;;;0.97;;
16612;SDS011;8419;52.358;9.752;2024-01-15T08:28:39;8.00;;;1.50;;
16612;SDS011;8419;52.358;9.752;2024-01-15T08:31:25;0.47;;;0.47;;
16612;SDS011;8419;52.358;9.752;2024-01-15T08:34:11;0.90;;;0.70;;
16612;SDS011;8419;52.358;9.752;2024-01-15T08:36:57;0.87;;;0.63;;
16612;SDS011;8419;52.358;9.752;2024-01-15T08:39:42;1.90;;;0.97;;
16612;SDS011;8419;52.358;9.752;2024-01-15T08:42:27;1.57;;;0.97;;
16612;SDS011;8419;52.358;9.752;2024-01-15T08:45:13;3.83;;;0.87;;
16612;SDS011;8419;52.358;9.752;2024-01-15T08:47:59;4.03;;;0.90;;
16612;SDS011;8419;52.358;9.752;2024-01-15T08:50:45;1.10;;;0.80;;
16612;SDS011;8419;52.358;9.752;2024-01-15T08:53:30;4.70;;;1.30;;
16612;SDS011;8419;52.358;9.752;2024-01-15T08:56:16;3.60;;;1.10;;
16612;SDS011;8419;52.358;9.752;2024-01-15T08:59:01;1.23;;;0.70;;
16612;SDS011;8419;52.358;9.752;2024-01-15T09:01:47;3.37;;;1.17;;
16612;SDS011;8419;52.358;9.752;2024-01-15T09:04:32;3.07;;;1.50;;
16612;SDS011;8419;52.358;9.752;2024-01-15T09:07:17;3.93;;;1.23;;
16612;SDS011;8419;52.358;9.752;2024-01-15T09:10:03;2.13;;;0.70;;
16612;SDS011;8419;52.358;9.752;2024-01-15T09:12:51;6.27;;;1.47;;
16612;SDS011;8419;52.358;9.752;2024-01-15T09:15:36;4.13;;;1.47;;
16612;SDS011;8419;52.358;9.752;2024-01-15T09:18:22;3.13;;;1.00;;
16612;SDS011;8419;52.358;9.752;2024-01-15T09:21:07;2.30;;;0.80;;
16612;SDS011;8419;52.358;9.752;2024-01-15T09:23:53;3.40;;;1.33;;
16612;SDS011;8419;52.358;9.752;2024-01-15T09:26:38;1.60;;;0.50;;
16612;SDS011;8419;52.358;9.752;2024-01-15T09:29:25;1.80;;;0.83;;
16612;SDS011;8419;52.358;9.752;2024-01-15T09:32:10;1.07;;;0.80;;
16612;SDS011;8419;52.358;9.752;2024-01-15T09:34:56;3.10;;;1.17;;
16612;SDS011;8419;52.358;9.752;2024-01-15T09:37:41;3.60;;;1.10;;
16612;SDS011;8419;52.358;9.752;2024-01-15T09:40:27;1.30;;;0.83;;
16612;SDS011;8419;52.358;9.752;2024-01-15T09:43:16;3.20;;;0.87;;
16612;SDS011;8419;52.358;9.752;2024-01-15T09:46:02;1.37;;;0.60;;
16612;SDS011;8419;52.358;9.752;2024-01-15T09:48:48;4.10;;;0.97;;
16612;SDS011;8419;52.358;9.752;2024-01-15T09:51:34;2.55;;;1.17;;
16612;SDS011;8419;52.358;9.752;2024-01-15T09:54:21;1.37;;;0.80;;
16612;SDS011;8419;52.358;9.752;2024-01-15T09:57:08;3.83;;;1.13;;
16612;SDS011;8419;52.358;9.752;2024-01-15T09:59:53;3.67;;;1.67;;
16612;SDS011;8419;52.358;9.752;2024-01-15T10:02:44;2.63;;;1.00;;
16612;SDS011;8419;52.358;9.752;2024-01-15T10:05:29;0.90;;;0.70;;
16612;SDS011;8419;52.358;9.752;2024-01-15T10:08:15;5.37;;;1.80;;
16612;SDS011;8419;52.358;9.752;2024-01-15T10:11:01;1.10;;;0.83;;
16612;SDS011;8419;52.358;9.752;2024-01-15T10:13:48;2.27;;;1.07;;
16612;SDS011;8419;52.358;9.752;2024-01-15T10:16:37;1.30;;;0.85;;
16612;SDS011;8419;52.358;9.752;2024-01-15T10:19:23;0.37;;;0.37;;
16612;SDS011;8419;52.358;9.752;2024-01-15T10:22:09;0.90;;;0.73;;
16612;SDS011;8419;52.358;9.752;2024-01-15T10:24:55;1.10;;;0.70;;
16612;SDS011;8419;52.358;9.752;2024-01-15T10:27:41;2.70;;;1.10;;
16612;SDS011;8419;52.358;9.752;2024-01-15T10:30:27;1.83;;;1.03;;
16612;SDS011;8419;52.358;9.752;2024-01-15T10:33:13;2.97;;;0.93;;
16612;SDS011;8419;52.358;9.752;2024-01-15T10:36:00;1.47;;;1.17;;
16612;SDS011;8419;52.358;9.752;2024-01-15T10:38:46;1.23;;;0.90;;
16612;SDS011;8419;52.358;9.752;2024-01-15T10:41:31;4.07;;;0.90;;
16612;SDS011;8419;52.358;9.752;2024-01-15T10:44:17;1.08;;;0.73;;
16612;SDS011;8419;52.358;9.752;2024-01-15T10:47:04;1.57;;;0.57;;
16612;SDS011;8419;52.358;9.752;2024-01-15T10:49:50;4.10;;;0.80;;
16612;SDS011;8419;52.358;9.752;2024-01-15T10:52:37;3.83;;;1.03;;
16612;SDS011;8419;52.358;9.752;2024-01-15T10:55:24;0.93;;;0.60;;
16612;SDS011;8419;52.358;9.752;2024-01-15T10:58:10;2.10;;;0.80;;
16612;SDS011;8419;52.358;9.752;2024-01-15T11:00:57;0.85;;;0.55;;
16612;SDS011;8419;52.358;9.752;2024-01-15T11:03:46;0.77;;;0.50;;
16612;SDS011;8419;52.358;9.752;2024-01-15T11:06:41;0.82;;;0.73;;
16612;SDS011;8419;52.358;9.752;2024-01-15T11:09:29;0.55;;;0.45;;
16612;SDS011;8419;52.358;9.752;2024-01-15T11:12:15;2.10;;;0.62;;
16612;SDS011;8419;52.358;9.752;2024-01-15T11:15:02;1.47;;;0.67;;
16612;SDS011;8419;52.358;9.752;2024-01-15T11:17:59;0.93;;;0.57;;
16612;SDS011;8419;52.358;9.752;2024-01-15T11:24:05;2.37;;;1.00;;
16612;SDS011;8419;52.358;9.752;2024-01-15T11:26:55;1.48;;;0.65;;
16612;SDS011;8419;52.358;9.752;2024-01-15T11:29:41;3.60;;;0.93;;
16612;SDS011;8419;52.358;9.752;2024-01-15T11:32:33;2.90;;;0.90;;
16612;SDS011;8419;52.358;9.752;2024-01-15T11:35:21;1.20;;;0.77;;
16612;SDS011;8419;52.358;9.752;2024-01-15T11:38:08;0.70;;;0.70;;
16612;SDS011;8419;52.358;9.752;2024-01-15T11:40:54;1.35;;;0.80;;
16612;SDS011;8419;52.358;9.752;2024-01-15T11:43:40;1.20;;;0.93;;
16612;SDS011;8419;52.358;9.752;2024-01-15T11:46:25;1.65;;;0.65;;
16612;SDS011;8419;52.358;9.752;2024-01-15T11:49:18;0.88;;;0.65;;
16612;SDS011;8419;52.358;9.752;2024-01-15T11:52:21;2.60;;;1.30;;
16612;SDS011;8419;52.358;9.752;2024-01-15T11:55:10;2.67;;;0.93;;
16612;SDS011;8419;52.358;9.752;2024-01-15T11:58:00;2.92;;;1.10;;
16612;SDS011;8419;52.358;9.752;2024-01-15T12:00:47;1.13;;;0.53;;
16612;SDS011;8419;52.358;9.752;2024-01-15T12:03:33;1.13;;;0.90;;
16612;SDS011;8419;52.358;9.752;2024-01-15T12:06:19;3.60;;;1.10;;
16612;SDS011;8419;52.358;9.752;2024-01-15T12:09:07;0.50;;;0.50;;
16612;SDS011;8419;52.358;9.752;2024-01-15T12:11:57;4.50;;;1.30;;
16612;SDS011;8419;52.358;9.752;2024-01-15T12:14:50;1.03;;;0.70;;
16612;SDS011;8419;52.358;9.752;2024-01-15T12:17:35;1.90;;;0.83;;
16612;SDS011;8419;52.358;9.752;2024-01-15T12:20:21;3.30;;;0.57;;
16612;SDS011;8419;52.358;9.752;2024-01-15T12:23:07;4.22;;;1.23;;
16612;SDS011;8419;52.358;9.752;2024-01-15T12:25:54;2.92;;;0.75;;
16612;SDS011;8419;52.358;9.752;2024-01-15T12:28:39;2.65;;;1.15;;
16612;SDS011;8419;52.358;9.752;2024-01-15T12:31:26;0.57;;;0.50;;
16612;SDS011;8419;52.358;9.752;2024-01-15T12:34:12;1.98;;;0.80;;
16612;SDS011;8419;52.358;9.752;2024-01-15T12:36:57;1.95;;;0.85;;
16612;SDS011;8419;52.358;9.752;2024-01-15T12:39:43;3.22;;;1.00;;
16612;SDS011;8419;52.358;9.752;2024-01-15T12:42:29;0.70;;;0.62;;
16612;SDS011;8419;52.358;9.752;2024-01-15T12:45:15;3.97;;;1.23;;
16612;SDS011;8419;52.358;9.752;2024-01-15T12:48:02;0.68;;;0.68;;
16612;SDS011;8419;52.358;9.752;2024-01-15T12:50:51;1.40;;;0.80;;
16612;SDS011;8419;52.358;9.752;2024-01-15T12:53:37;3.22;;;1.12;;
16612;SDS011;8419;52.358;9.752;2024-01-15T12:56:23;1.55;;;0.52;;
16612;SDS011;8419;52.358;9.752;2024-01-15T12:59:09;1.42;;;0.90;;
16612;SDS011;8419;52.358;9.752;2024-01-15T13:01:54;4.95;;;1.00;;
16612;SDS011;8419;52.358;9.752;2024-01-15T13:04:40;2.37;;;0.70;;
16612;SDS011;8419;52.358;9.752;2024-01-15T13:07:30;2.92;;;0.88;;
16612;SDS011;8419;52.358;9.752;2024-01-15T13:10:22;1.20;;;0.57;;
16612;SDS011;8419;52.358;9.752;2024-01-15T13:13:09;2.67;;;0.70;;
16612;SDS011;8419;52.358;9.752;2024-01-15T13:15:55;5.40;;;1.10;;
16612;SDS011;8419;52.358;9.752;2024-01-15T13:18:40;2.63;;;0.87;;
16612;SDS011;8419;52.358;9.752;2024-01-15T13:21:30;0.37;;;0.37;;
16612;SDS011;8419;52.358;9.752;2024-01-15T13:24:15;3.65;;;1.20;;
16612;SDS011;8419;52.358;9.752;2024-01-15T13:27:11;2.47;;;1.10;;
16612;SDS011;8419;52.358;9.752;2024-01-15T13:29:59;3.40;;;0.55;;
16612;SDS011;8419;52.358;9.752;2024-01-15T13:32:44;5.22;;;0.70;;
16612;SDS011;8419;52.358;9.752;2024-01-15T13:35:31;4.70;;;1.00;;
16612;SDS011;8419;52.358;9.752;2024-01-15T13:38:17;1.73;;;0.57;;
16612;SDS011;8419;52.358;9.752;2024-01-15T13:41:02;3.60;;;0.60;;
16612;SDS011;8419;52.358;9.752;2024-01-15T13:43:50;1.20;;;0.60;;
16612;SDS011;8419;52.358;9.752;2024-01-15T13:46:37;2.83;;;0.53;;
16612;SDS011;8419;52.358;9.752;2024-01-15T13:49:23;2.07;;;0.57;;
16612;SDS011;8419;52.358;9.752;2024-01-15T13:52:09;6.67;;;0.90;;
16612;SDS011;8419;52.358;9.752;2024-01-15T13:54:59;2.20;;;1.20;;
16612;SDS011;8419;52.358;9.752;2024-01-15T13:57:45;4.37;;;1.62;;
16612;SDS011;8419;52.358;9.752;2024-01-15T14:00:31;0.80;;;0.50;;
16612;SDS011;8419;52.358;9.752;2024-01-15T14:03:21;3.33;;;1.00;;
16612;SDS011;8419;52.358;9.752;2024-01-15T14:06:07;1.10;;;0.77;;
16612;SDS011;8419;52.358;9.752;2024-01-15T14:08:55;1.97;;;0.60;;
16612;SDS011;8419;52.358;9.752;2024-01-15T14:11:40;1.53;;;1.13;;
16612;SDS011;8419;52.358;9.752;2024-01-15T14:14:31;2.57;;;0.93;;
16612;SDS011;8419;52.358;9.752;2024-01-15T14:17:17;5.87;;;1.10;;
16612;SDS011;8419;52.358;9.752;2024-01-15T14:20:03;1.13;;;0.77;;
16612;SDS011;8419;52.358;9.752;2024-01-15T14:22:50;3.83;;;0.90;;
16612;SDS011;8419;52.358;9.752;2024-01-15T14:25:36;3.10;;;1.23;;
16612;SDS011;8419;52.358;9.752;2024-01-15T14:28:21;1.73;;;1.13;;
16612;SDS011;8419;52.358;9.752;2024-01-15T14:31:07;4.77;;;1.40;;
16612;SDS011;8419;52.358;9.752;2024-01-15T14:33:53;1.27;;;0.47;;
16612;SDS011;8419;52.358;9.752;2024-01-15T14:36:39;1.80;;;0.70;;
16612;SDS011;8419;52.358;9.752;2024-01-15T14:39:25;2.20;;;1.10;;
16612;SDS011;8419;52.358;9.752;2024-01-15T14:42:11;1.03;;;0.70;;
16612;SDS011;8419;52.358;9.752;2024-01-15T14:44:57;0.83;;;0.70;;
16612;SDS011;8419;52.358;9.752;2024-01-15T14:47:43;4.07;;;1.63;;
16612;SDS011;8419;52.358;9.752;2024-01-15T14:50:28;5.50;;;1.60;;
16612;SDS011;8419;52.358;9.752;2024-01-15T14:53:14;1.33;;;1.23;;
16612;SDS011;8419;52.358;9.752;2024-01-15T14:56:01;0.50;;;0.50;;
16612;SDS011;8419;52.358;9.752;2024-01-15T14:58:47;2.37;;;1.30;;
16612;SDS011;8419;52.358;9.752;2024-01-15T15:01:33;0.70;;;0.70;;
16612;SDS011;8419;52.358;9.752;2024-01-15T15:04:19;0.97;;;0.77;;
16612;SDS011;8419;52.358;9.752;2024-01-15T15:07:05;3.20;;;1.43;;
16612;SDS011;8419;52.358;9.752;2024-01-15T15:09:50;3.40;;;2.03;;
16612;SDS011;8419;52.358;9.752;2024-01-15T15:12:36;3.30;;;1.70;;
16612;SDS011;8419;52.358;9.752;2024-01-15T15:15:22;2.83;;;1.47;;
16612;SDS011;8419;52.358;9.752;2024-01-15T15:18:08;3.13;;;1.07;;
16612;SDS011;8419;52.358;9.752;2024-01-15T15:20:54;3.20;;;1.63;;
16612;SDS011;8419;52.358;9.752;2024-01-15T15:23:39;2.63;;;1.03;;
16612;SDS011;8419;52.358;9.752;2024-01-15T15:26:25;2.10;;;1.10;;
16612;SDS011;8419;52.358;9.752;2024-01-15T15:29:10;1.87;;;1.07;;
16612;SDS011;8419;52.358;9.752;2024-01-15T15:31:55;2.80;;;1.37;;
16612;SDS011;8419;52.358;9.752;2024-01-15T15:34:41;0.93;;;0.87;;
16612;SDS011;8419;52.358;9.752;2024-01-15T15:37:28;2.20;;;1.20;;
16612;SDS011;8419;52.358;9.752;2024-01-15T15:40:14;3.90;;;1.33;;
16612;SDS011;8419;52.358;9.752;2024-01-15T15:43:11;0.93;;;0.80;;
16612;SDS011;8419;52.358;9.752;2024-01-15T15:46:06;3.37;;;1.87;;
16612;SDS011;8419;52.358;9.752;2024-01-15T15:48:51;2.13;;;1.10;;
16612;SDS011;8419;52.358;9.752;2024-01-15T15:51:37;2.90;;;1.20;;
16612;SDS011;8419;52.358;9.752;2024-01-15T15:54:24;1.10;;;0.70;;
16612;SDS011;8419;52.358;9.752;2024-01-15T15:57:09;0.87;;;0.80;;
16612;SDS011;8419;52.358;9.752;2024-01-15T15:59:56;2.13;;;1.90;;
16612;SDS011;8419;52.358;9.752;2024-01-15T16:02:41;3.70;;;1.07;;
16612;SDS011;8419;52.358;9.752;2024-01-15T16:05:27;2.03;;;1.60;;
16612;SDS011;8419;52.358;9.752;2024-01-15T16:08:14;1.57;;;1.30;;
16612;SDS011;8419;52.358;9.752;2024-01-15T16:11:00;2.40;;;1.03;;
16612;SDS011;8419;52.358;9.752;2024-01-15T16:14:03;1.60;;;1.50;;
16612;SDS011;8419;52.358;9.752;2024-01-15T16:17:00;2.43;;;0.87;;
16612;SDS011;8419;52.358;9.752;2024-01-15T16:19:46;1.47;;;1.00;;
16612;SDS011;8419;52.358;9.752;2024-01-15T16:22:33;1.83;;;1.10;;
16612;SDS011;8419;52.358;9.752;2024-01-15T16:25:18;2.87;;;1.30;;
16612;SDS011;8419;52.358;9.752;2024-01-15T16:28:04;1.50;;;0.73;;
16612;SDS011;8419;52.358;9.752;2024-01-15T16:30:50;1.53;;;0.93;;
16612;SDS011;8419;52.358;9.752;2024-01-15T16:33:35;0.70;;;0.60;;
16612;SDS011;8419;52.358;9.752;2024-01-15T16:36:21;0.67;;;0.67;;
16612;SDS011;8419;52.358;9.752;2024-01-15T16:39:06;1.47;;;1.27;;
16612;SDS011;8419;52.358;9.752;2024-01-15T16:41:52;1.43;;;1.00;;
16612;SDS011;8419;52.358;9.752;2024-01-15T16:44:38;0.70;;;0.60;;
16612;SDS011;8419;52.358;9.752;2024-01-15T16:47:23;2.77;;;0.60;;
16612;SDS011;8419;52.358;9.752;2024-01-15T16:50:09;0.70;;;0.70;;
16612;SDS011;8419;52.358;9.752;2024-01-15T16:52:55;0.47;;;0.47;;
16612;SDS011;8419;52.358;9.752;2024-01-15T16:55:41;1.10;;;0.90;;
16612;SDS011;8419;52.358;9.752;2024-01-15T16:58:29;1.93;;;1.20;;